createdAt,value
2023-04-18T00:02:15.463Z,10.12
2023-04-18T00:04:43.418Z,10.02
2023-04-18T00:07:13.164Z,10.00
2023-04-18T00:09:41.056Z,10.00
2023-04-18T00:12:11.948Z,9.99
2023-04-18T00:14:40.910Z,9.97
2023-04-18T00:17:09.535Z,9.96
2023-04-18T00:19:41.404Z,9.99
2023-04-18T00:22:09.361Z,9.92
2023-04-18T00:24:37.215Z,9.84
2023-04-18T00:27:05.189Z,9.82
2023-04-18T00:29:34.334Z,9.80
2023-04-18T00:32:02.159Z,9.68
2023-04-18T00:34:29.974Z,9.67
2023-04-18T00:36:58.153Z,9.62
2023-04-18T00:39:25.951Z,9.60
2023-04-18T00:41:53.825Z,9.63
2023-04-18T00:44:21.826Z,9.62
2023-04-18T00:46:51.247Z,9.53
2023-04-18T00:49:19.114Z,9.53
2023-04-18T00:51:47.955Z,9.53
2023-04-18T00:54:18.588Z,9.56
2023-04-18T00:56:47.509Z,9.53
2023-04-18T00:59:15.614Z,9.51
2023-04-18T01:01:45.152Z,9.53
2023-04-18T01:04:14.983Z,9.51
2023-04-18T01:06:44.156Z,9.40
2023-04-18T01:09:12.673Z,9.33
2023-04-18T01:11:40.618Z,9.26
2023-04-18T01:14:09.680Z,9.29
2023-04-18T01:16:38.874Z,9.30
2023-04-18T01:19:06.980Z,9.32
2023-04-18T01:21:37.507Z,9.30
2023-04-18T01:24:11.152Z,9.25
2023-04-18T01:26:39.386Z,9.19
2023-04-18T01:29:07.366Z,9.13
2023-04-18T01:31:36.632Z,9.04
2023-04-18T01:34:04.614Z,8.95
2023-04-18T01:36:32.690Z,8.96
2023-04-18T01:39:00.745Z,8.92
2023-04-18T01:41:32.989Z,8.93
2023-04-18T01:44:01.612Z,8.92
2023-04-18T01:46:29.964Z,8.87
2023-04-18T01:48:58.481Z,8.85
2023-04-18T01:51:26.466Z,8.73
2023-04-18T01:53:54.436Z,8.79
2023-04-18T01:56:22.346Z,8.79
2023-04-18T01:58:51.566Z,8.81
2023-04-18T02:01:20.238Z,8.80
2023-04-18T02:03:48.350Z,8.80
2023-04-18T02:06:16.466Z,8.78
2023-04-18T02:08:44.291Z,8.75
2023-04-18T02:11:12.309Z,8.65
2023-04-18T02:13:40.176Z,8.55
2023-04-18T02:16:12.962Z,8.61
2023-04-18T02:18:41.484Z,8.55
2023-04-18T02:21:11.172Z,8.58
2023-04-18T02:23:39.101Z,8.57
2023-04-18T02:26:06.993Z,8.56
2023-04-18T02:28:34.851Z,8.51
2023-04-18T02:31:02.747Z,8.50
2023-04-18T02:33:32.044Z,8.50
2023-04-18T02:35:59.978Z,8.40
2023-04-18T02:38:44.887Z,8.33
2023-04-18T02:41:23.590Z,8.36
2023-04-18T02:43:51.456Z,8.34
2023-04-18T02:46:19.347Z,8.28
2023-04-18T02:48:48.861Z,8.18
2023-04-18T02:51:16.900Z,8.19
2023-04-18T02:53:44.742Z,8.17
2023-04-18T02:56:13.003Z,8.21
2023-04-18T02:58:40.862Z,8.20
2023-04-18T03:01:08.773Z,8.21
2023-04-18T03:03:36.627Z,8.16
2023-04-18T03:06:06.029Z,8.17
2023-04-18T03:08:33.870Z,8.13
2023-04-18T03:11:01.705Z,8.07
2023-04-18T03:13:29.471Z,8.14
2023-04-18T03:15:57.472Z,8.14
2023-04-18T03:18:25.328Z,8.17
2023-04-18T03:20:53.539Z,8.07
2023-04-18T03:23:22.880Z,8.06
2023-04-18T03:25:50.706Z,8.04
2023-04-18T03:28:18.454Z,8.05
2023-04-18T03:30:46.218Z,8.07
2023-04-18T03:33:14.902Z,8.04
2023-04-18T03:35:42.760Z,8.03
2023-04-18T03:38:10.542Z,8.05
2023-04-18T03:40:40.125Z,8.01
2023-04-18T03:43:07.888Z,8.00
2023-04-18T03:45:36.056Z,7.95
2023-04-18T03:48:04.727Z,7.94
2023-04-18T03:50:32.451Z,7.93
2023-04-18T03:53:00.774Z,7.92
2023-04-18T03:55:28.789Z,7.92
2023-04-18T03:57:59.127Z,7.88
2023-04-18T04:00:27.139Z,7.91
2023-04-18T04:02:55.091Z,7.91
2023-04-18T04:05:23.022Z,7.89
2023-04-18T04:07:50.891Z,7.82
2023-04-18T04:10:18.699Z,7.87
2023-04-18T04:12:46.909Z,7.92
2023-04-18T04:15:16.234Z,7.92
2023-04-18T04:17:44.256Z,7.95
2023-04-18T04:20:13.138Z,7.95
2023-04-18T04:22:41.490Z,7.93
2023-04-18T04:25:10.897Z,7.96
2023-04-18T04:27:38.981Z,8.01
2023-04-18T04:30:09.325Z,8.02
2023-04-18T04:32:39.399Z,8.01
2023-04-18T04:35:09.068Z,7.98
2023-04-18T04:37:37.063Z,7.95
2023-04-18T04:40:06.329Z,7.97
2023-04-18T04:42:34.625Z,7.97
2023-04-18T04:45:02.432Z,8.01
2023-04-18T04:47:30.394Z,8.04
2023-04-18T04:49:59.547Z,8.02
2023-04-18T04:52:27.394Z,8.04
2023-04-18T04:54:55.170Z,8.09
2023-04-18T04:57:22.882Z,8.11
2023-04-18T04:59:50.618Z,8.18
2023-04-18T05:02:18.367Z,8.11
2023-04-18T05:04:46.132Z,8.18
2023-04-18T05:07:15.207Z,8.24
2023-04-18T05:09:43.175Z,8.21
2023-04-18T05:12:10.974Z,8.28
2023-04-18T05:14:38.632Z,8.29
2023-04-18T05:17:14.096Z,8.28
2023-04-18T05:19:44.406Z,8.28
2023-04-18T05:22:12.234Z,8.31
2023-04-18T05:24:41.913Z,8.38
2023-04-18T05:27:09.876Z,8.41
2023-04-18T05:29:38.113Z,8.43
2023-04-18T05:32:06.662Z,8.47
2023-04-18T05:34:38.040Z,8.51
2023-04-18T05:37:06.508Z,8.57
2023-04-18T05:39:34.430Z,8.61
2023-04-18T05:42:03.664Z,8.65
2023-04-18T05:44:31.378Z,8.70
2023-04-18T05:46:59.059Z,8.74
2023-04-18T05:49:27.016Z,8.82
2023-04-18T05:51:56.425Z,8.91
2023-04-18T05:54:25.116Z,8.90
2023-04-18T05:56:53.172Z,9.08
2023-04-18T05:59:22.822Z,9.25
2023-04-18T06:01:51.407Z,9.31
2023-04-18T06:04:20.841Z,9.43
2023-04-18T06:06:49.039Z,9.40
2023-04-18T06:09:17.089Z,9.47
2023-04-18T06:11:44.885Z,9.53
2023-04-18T06:14:12.875Z,9.48
2023-04-18T06:16:42.300Z,9.48
2023-04-18T06:19:10.436Z,9.41
2023-04-18T06:21:38.249Z,9.40
2023-04-18T06:24:06.449Z,9.43
2023-04-18T06:26:34.474Z,9.42
2023-04-18T06:29:02.226Z,9.49
2023-04-18T06:31:30.103Z,9.51
2023-04-18T06:33:59.280Z,9.61
2023-04-18T06:36:27.937Z,9.60
2023-04-18T06:38:57.425Z,9.62
2023-04-18T06:41:25.186Z,9.62
2023-04-18T06:44:03.406Z,9.66
2023-04-18T06:46:32.525Z,9.70
2023-04-18T06:49:01.729Z,9.83
2023-04-18T06:51:29.559Z,9.97
2023-04-18T06:53:57.306Z,10.02
2023-04-18T06:56:25.095Z,10.19
2023-04-18T06:58:53.853Z,10.24
2023-04-18T07:01:21.952Z,10.23
2023-04-18T07:03:50.138Z,10.07
2023-04-18T07:06:19.411Z,10.03
2023-04-18T07:08:47.119Z,10.07
2023-04-18T07:11:15.606Z,10.06
2023-04-18T07:13:43.597Z,10.05
2023-04-18T07:16:11.326Z,10.12
2023-04-18T07:18:39.063Z,10.20
2023-04-18T07:21:08.096Z,10.19
2023-04-18T07:23:37.458Z,10.34
2023-04-18T07:26:06.434Z,10.40
2023-04-18T07:28:34.511Z,10.62
2023-04-18T07:31:03.761Z,10.67
2023-04-18T07:33:33.737Z,10.78
2023-04-18T07:36:02.599Z,10.81
2023-04-18T07:38:30.391Z,10.83
2023-04-18T07:41:00.635Z,10.78
2023-04-18T07:43:28.588Z,10.71
2023-04-18T07:45:56.693Z,10.69
2023-04-18T07:48:27.125Z,10.68
2023-04-18T07:50:55.192Z,10.66
2023-04-18T07:53:22.895Z,10.69
2023-04-18T07:55:51.309Z,10.74
2023-04-18T07:58:20.969Z,10.80
2023-04-18T08:00:48.741Z,10.86
2023-04-18T08:03:16.759Z,10.72
2023-04-18T08:05:45.017Z,10.73
2023-04-18T08:08:13.601Z,10.63
2023-04-18T08:10:41.343Z,10.63
2023-04-18T08:13:09.502Z,10.74
2023-04-18T08:15:39.092Z,10.70
2023-04-18T08:18:07.054Z,10.70
2023-04-18T08:20:36.310Z,10.69
2023-04-18T08:23:08.673Z,10.76
2023-04-18T08:25:38.306Z,10.80
2023-04-18T08:28:06.467Z,10.73
2023-04-18T08:30:34.326Z,10.62
2023-04-18T08:33:04.290Z,10.55
2023-04-18T08:35:32.169Z,10.54
2023-04-18T08:37:59.938Z,10.54
2023-04-18T08:40:27.731Z,10.63
2023-04-18T08:42:58.396Z,10.73
2023-04-18T08:45:26.201Z,10.78
2023-04-18T08:47:54.013Z,10.99
2023-04-18T08:50:23.386Z,11.11
2023-04-18T08:52:52.400Z,11.29
2023-04-18T08:55:22.270Z,11.44
2023-04-18T08:57:54.189Z,11.50
2023-04-18T09:00:23.772Z,11.43
2023-04-18T09:02:56.540Z,11.38
2023-04-18T09:05:27.625Z,11.46
2023-04-18T09:07:56.680Z,11.49
2023-04-18T09:10:29.777Z,11.45
2023-04-18T09:12:58.750Z,11.21
2023-04-18T09:15:29.168Z,11.16
2023-04-18T09:17:58.913Z,11.08
2023-04-18T09:20:37.749Z,11.14
2023-04-18T09:23:10.398Z,11.29
2023-04-18T09:25:45.108Z,11.29
2023-04-18T09:28:24.376Z,11.12
2023-04-18T09:30:53.180Z,11.24
2023-04-18T09:33:28.875Z,11.39
2023-04-18T09:36:17.605Z,11.37
2023-04-18T09:38:45.651Z,11.27
2023-04-18T09:41:15.776Z,11.27
2023-04-18T09:43:43.878Z,11.21
2023-04-18T09:46:12.682Z,11.21
2023-04-18T09:48:40.761Z,11.23
2023-04-18T09:51:11.640Z,11.31
2023-04-18T09:53:40.524Z,11.30
2023-04-18T09:56:13.766Z,11.25
2023-04-18T09:58:42.952Z,11.34
2023-04-18T10:01:13.218Z,11.41
2023-04-18T10:03:48.225Z,11.52
2023-04-18T10:06:18.252Z,11.54
2023-04-18T10:08:49.031Z,11.50
2023-04-18T10:11:18.578Z,11.58
2023-04-18T10:13:50.434Z,11.62
2023-04-18T10:16:18.592Z,11.64
2023-04-18T10:18:46.371Z,11.65
2023-04-18T10:21:14.075Z,11.64
2023-04-18T10:23:43.168Z,11.62
2023-04-18T10:26:11.820Z,11.84
2023-04-18T10:28:57.217Z,12.04
2023-04-18T10:31:26.494Z,12.30
2023-04-18T10:34:04.768Z,12.46
2023-04-18T10:36:34.036Z,12.43
2023-04-18T10:39:20.590Z,12.53
2023-04-18T10:41:51.090Z,12.47
2023-04-18T10:44:22.230Z,12.50
2023-04-18T10:47:31.952Z,12.58
2023-04-18T10:50:06.271Z,12.44
2023-04-18T10:52:34.662Z,12.48
2023-04-18T10:55:14.060Z,12.53
2023-04-18T10:57:43.852Z,12.50
2023-04-18T11:00:13.973Z,12.68
2023-04-18T11:02:49.012Z,12.72
2023-04-18T11:05:21.334Z,12.91
2023-04-18T11:07:49.794Z,13.05
2023-04-18T11:10:20.938Z,13.15
2023-04-18T11:12:49.412Z,13.21
2023-04-18T11:15:21.523Z,13.26
2023-04-18T11:17:56.419Z,13.39
2023-04-18T11:20:24.253Z,13.59
2023-04-18T11:22:53.318Z,13.69
2023-04-18T11:25:28.527Z,13.63
2023-04-18T11:27:59.482Z,13.63
2023-04-18T11:30:27.418Z,13.49
2023-04-18T11:32:56.031Z,13.46
2023-04-18T11:35:24.148Z,13.39
2023-04-18T11:37:52.126Z,13.45
2023-04-18T11:40:19.951Z,13.46
2023-04-18T11:42:49.111Z,13.41
2023-04-18T11:45:16.999Z,13.50
2023-04-18T11:47:46.361Z,13.55
2023-04-18T11:50:14.753Z,13.68
2023-04-18T11:52:43.614Z,13.74
2023-04-18T11:55:14.215Z,13.62
2023-04-18T11:57:42.592Z,13.63
2023-04-18T12:00:15.112Z,13.75
2023-04-18T12:02:43.966Z,13.83
2023-04-18T12:05:14.978Z,13.67
2023-04-18T12:07:45.236Z,13.67
2023-04-18T12:10:25.673Z,13.73
2023-04-18T12:12:54.624Z,13.63
2023-04-18T12:15:27.103Z,13.66
2023-04-18T12:17:59.291Z,13.85
2023-04-18T12:20:34.842Z,14.04
2023-04-18T12:23:03.478Z,14.10
2023-04-18T12:25:31.646Z,14.15
2023-04-18T12:28:01.641Z,14.18
2023-04-18T12:30:32.344Z,14.14
2023-04-18T12:33:01.685Z,14.28
2023-04-18T12:35:32.851Z,14.29
2023-04-18T12:38:02.215Z,14.45
2023-04-18T12:40:30.682Z,14.55
2023-04-18T12:42:59.487Z,14.56
2023-04-18T12:45:28.500Z,14.64
2023-04-18T12:47:57.781Z,14.53
2023-04-18T12:50:27.181Z,14.41
2023-04-18T12:52:56.372Z,14.50
2023-04-18T12:55:24.481Z,14.58
2023-04-18T12:57:54.459Z,14.88
2023-04-18T13:00:24.432Z,15.09
2023-04-18T13:02:52.877Z,14.93
2023-04-18T13:05:23.870Z,14.78
2023-04-18T13:07:58.732Z,14.75
2023-04-18T13:10:33.197Z,14.81
2023-04-18T13:13:00.925Z,14.79
2023-04-18T13:15:28.802Z,14.97
2023-04-18T13:17:57.265Z,15.02
2023-04-18T13:20:26.804Z,15.07
2023-04-18T13:22:54.576Z,15.07
2023-04-18T13:25:22.591Z,15.11
2023-04-18T13:27:51.202Z,15.20
2023-04-18T13:30:19.417Z,15.12
2023-04-18T13:32:47.321Z,15.22
2023-04-18T13:35:15.088Z,15.35
2023-04-18T13:37:44.953Z,15.33
2023-04-18T13:40:13.725Z,15.36
2023-04-18T13:42:41.528Z,15.25
2023-04-18T13:45:09.920Z,15.21
2023-04-18T13:47:38.398Z,15.25
2023-04-18T13:50:07.252Z,15.18
2023-04-18T13:52:35.296Z,15.28
2023-04-18T13:55:19.798Z,15.23
2023-04-18T13:57:47.618Z,15.18
2023-04-18T14:00:17.011Z,15.18
2023-04-18T14:02:45.145Z,15.16
2023-04-18T14:05:13.316Z,15.32
2023-04-18T14:07:41.305Z,15.43
2023-04-18T14:10:10.409Z,15.62
2023-04-18T14:12:39.921Z,15.85
2023-04-18T14:15:11.392Z,15.99
2023-04-18T14:17:39.193Z,16.06
2023-04-18T14:20:08.490Z,16.08
2023-04-18T14:22:36.348Z,16.02
2023-04-18T14:25:04.237Z,15.86
2023-04-18T14:27:32.865Z,15.53
2023-04-18T14:30:02.124Z,15.46
2023-04-18T14:32:30.514Z,15.42
2023-04-18T14:34:59.012Z,15.20
2023-04-18T14:37:26.715Z,15.17
2023-04-18T14:39:54.965Z,15.46
2023-04-18T14:42:22.737Z,15.41
2023-04-18T14:44:50.562Z,15.44
2023-04-18T14:47:19.911Z,15.46
2023-04-18T14:49:47.627Z,15.61
2023-04-18T14:52:15.437Z,15.69
2023-04-18T14:54:43.962Z,15.87
2023-04-18T14:57:12.917Z,15.97
2023-04-18T14:59:40.631Z,16.02
2023-04-18T15:02:08.478Z,16.06
2023-04-18T15:04:37.873Z,15.87
2023-04-18T15:07:06.260Z,15.91
2023-04-18T15:09:37.305Z,16.02
2023-04-18T15:12:05.798Z,16.22
2023-04-18T15:14:34.395Z,16.36
2023-04-18T15:17:02.934Z,16.48
2023-04-18T15:19:32.179Z,16.41
2023-04-18T15:22:01.647Z,16.26
2023-04-18T15:24:29.663Z,16.20
2023-04-18T15:26:58.764Z,16.13
2023-04-18T15:29:28.649Z,16.00
2023-04-18T15:31:56.525Z,15.95
2023-04-18T15:34:24.271Z,15.80
2023-04-18T15:36:52.137Z,15.77
2023-04-18T15:39:23.452Z,15.87
2023-04-18T15:41:54.633Z,15.94
2023-04-18T15:44:22.459Z,16.00
2023-04-18T15:46:51.145Z,16.07
2023-04-18T15:49:18.939Z,16.04
2023-04-18T15:51:46.697Z,15.99
2023-04-18T15:54:14.653Z,15.87
2023-04-18T15:56:44.756Z,15.78
2023-04-18T15:59:13.257Z,15.61
2023-04-18T16:01:41.075Z,15.43
2023-04-18T16:04:09.189Z,15.45
2023-04-18T16:06:37.485Z,15.20
2023-04-18T16:09:06.855Z,15.18
2023-04-18T16:11:34.669Z,15.20
2023-04-18T16:14:03.894Z,15.26
2023-04-18T16:16:31.747Z,15.35
2023-04-18T16:19:02.106Z,15.43
2023-04-18T16:21:29.994Z,15.44
2023-04-18T16:23:57.796Z,15.46
2023-04-18T16:26:26.022Z,15.47
2023-04-18T16:28:53.884Z,15.49
2023-04-18T16:31:23.104Z,15.32
2023-04-18T16:33:52.533Z,15.07
2023-04-18T16:36:20.643Z,15.09
2023-04-18T16:38:48.568Z,15.15
2023-04-18T16:41:16.524Z,15.08
2023-04-18T16:43:44.637Z,15.11
2023-04-18T16:46:13.837Z,15.18
2023-04-18T16:48:45.060Z,15.14
2023-04-18T16:51:13.168Z,15.13
2023-04-18T16:53:41.033Z,15.07
2023-04-18T16:56:09.303Z,15.05
2023-04-18T16:58:37.102Z,15.00
2023-04-18T17:01:04.854Z,14.97
2023-04-18T17:03:32.641Z,14.96
2023-04-18T17:06:02.219Z,14.97
2023-04-18T17:08:31.956Z,15.04
2023-04-18T17:11:02.242Z,14.98
2023-04-18T17:13:31.476Z,14.98
2023-04-18T17:15:59.350Z,14.96
2023-04-18T17:18:33.941Z,14.77
2023-04-18T17:21:22.689Z,14.62
2023-04-18T17:23:50.489Z,14.64
2023-04-18T17:26:18.864Z,14.66
2023-04-18T17:28:46.782Z,14.70
2023-04-18T17:31:17.447Z,14.68
2023-04-18T17:33:46.278Z,14.60
2023-04-18T17:36:16.043Z,14.56
2023-04-18T17:38:48.879Z,14.52
2023-04-18T17:41:17.604Z,14.38
2023-04-18T17:43:46.587Z,14.25
2023-04-18T17:46:15.099Z,14.24
2023-04-18T17:48:43.040Z,14.20
2023-04-18T17:51:10.827Z,14.13
2023-04-18T17:53:39.937Z,14.09
2023-04-18T17:56:07.655Z,14.03
2023-04-18T17:58:35.594Z,14.10
2023-04-18T18:01:15.052Z,14.09
2023-04-18T18:03:44.900Z,14.01
2023-04-18T18:06:13.930Z,13.95
2023-04-18T18:08:44.166Z,13.93
2023-04-18T18:11:12.072Z,13.89
2023-04-18T18:13:40.204Z,13.82
2023-04-18T18:16:09.114Z,13.76
2023-04-18T18:18:39.759Z,13.66
2023-04-18T18:21:07.564Z,13.66
2023-04-18T18:23:35.409Z,13.65
2023-04-18T18:26:06.588Z,13.49
2023-04-18T18:28:34.508Z,13.45
2023-04-18T18:31:02.512Z,13.40
2023-04-18T18:33:30.608Z,13.38
2023-04-18T18:35:58.721Z,13.42
2023-04-18T18:38:26.662Z,13.39
2023-04-18T18:40:56.200Z,13.32
2023-04-18T18:43:26.305Z,13.25
2023-04-18T18:45:54.956Z,13.12
2023-04-18T18:48:23.118Z,13.11
2023-04-18T18:50:51.365Z,13.08
2023-04-18T18:53:19.200Z,13.02
2023-04-18T18:55:46.929Z,12.87
2023-04-18T18:58:14.780Z,12.90
2023-04-18T19:00:43.897Z,12.94
2023-04-18T19:03:12.527Z,12.87
2023-04-18T19:05:40.749Z,12.81
2023-04-18T19:08:11.244Z,12.84
2023-04-18T19:10:39.131Z,12.80
2023-04-18T19:13:06.849Z,12.73
2023-04-18T19:15:34.778Z,12.72
2023-04-18T19:18:04.081Z,12.70
2023-04-18T19:20:31.871Z,12.71
2023-04-18T19:22:59.622Z,12.72
2023-04-18T19:25:27.384Z,12.64
2023-04-18T19:27:55.356Z,12.63
2023-04-18T19:30:23.265Z,12.62
2023-04-18T19:32:51.093Z,12.57
2023-04-18T19:35:21.632Z,12.55
2023-04-18T19:37:49.349Z,12.51
2023-04-18T19:40:17.351Z,12.51
2023-04-18T19:42:46.063Z,12.50
2023-04-18T19:45:15.092Z,12.49
2023-04-18T19:47:44.228Z,12.50
2023-04-18T19:50:12.455Z,12.45
2023-04-18T19:52:41.776Z,12.45
2023-04-18T19:55:10.523Z,12.42
2023-04-18T19:57:41.285Z,12.42
2023-04-18T20:00:11.497Z,12.32
2023-04-18T20:02:39.988Z,12.31
2023-04-18T20:05:09.641Z,12.32
2023-04-18T20:07:42.998Z,12.23
2023-04-18T20:10:11.346Z,12.21
2023-04-18T20:12:40.541Z,12.16
2023-04-18T20:15:12.497Z,12.10
2023-04-18T20:17:40.270Z,12.07
2023-04-18T20:20:10.963Z,12.06
2023-04-18T20:22:40.303Z,12.10
2023-04-18T20:25:10.020Z,12.05
2023-04-18T20:27:37.894Z,12.01
2023-04-18T20:30:07.141Z,12.02
2023-04-18T20:32:34.965Z,12.02
2023-04-18T20:35:04.406Z,12.01
2023-04-18T20:37:36.613Z,11.98
2023-04-18T20:40:07.974Z,11.99
2023-04-18T20:42:39.086Z,11.92
2023-04-18T20:45:40.359Z,11.87
2023-04-18T20:48:09.509Z,11.84
2023-04-18T20:50:40.280Z,11.81
2023-04-18T20:53:08.709Z,11.78
2023-04-18T20:55:36.535Z,11.75
2023-04-18T20:58:05.577Z,11.77
2023-04-18T21:00:33.321Z,11.74
2023-04-18T21:03:02.129Z,11.75
2023-04-18T21:05:30.038Z,11.82
2023-04-18T21:07:59.582Z,11.82
2023-04-18T21:10:27.308Z,11.84
2023-04-18T21:12:55.284Z,11.88
2023-04-18T21:15:24.475Z,11.86
2023-04-18T21:17:52.298Z,11.88
2023-04-18T21:20:20.487Z,11.90
2023-04-18T21:22:48.281Z,11.98
2023-04-18T21:25:16.454Z,11.94
2023-04-18T21:27:44.133Z,11.95
2023-04-18T21:30:12.432Z,11.96
2023-04-18T21:32:41.522Z,11.97
2023-04-18T21:35:09.985Z,11.94
2023-04-18T21:37:37.627Z,11.98
2023-04-18T21:40:06.408Z,12.00
2023-04-18T21:42:35.088Z,12.04
2023-04-18T21:45:02.848Z,12.05
2023-04-18T21:47:30.685Z,12.04
2023-04-18T21:49:59.782Z,12.03
2023-04-18T21:52:27.480Z,11.98
2023-04-18T21:54:55.180Z,12.00
2023-04-18T21:57:22.940Z,12.04
2023-04-18T21:59:50.594Z,12.04
2023-04-18T22:02:18.452Z,12.00
2023-04-18T22:04:48.058Z,12.01
2023-04-18T22:07:18.768Z,12.02
2023-04-18T22:09:46.891Z,12.05
2023-04-18T22:12:15.742Z,12.02
2023-04-18T22:14:48.109Z,12.02
2023-04-18T22:17:15.852Z,12.06
2023-04-18T22:19:44.922Z,12.08
2023-04-18T22:22:12.636Z,12.05
2023-04-18T22:24:41.675Z,12.09
2023-04-18T22:27:09.391Z,12.05
2023-04-18T22:29:37.067Z,12.06
2023-04-18T22:32:04.810Z,12.09
2023-04-18T22:34:32.463Z,12.06
2023-04-18T22:37:00.245Z,12.07
2023-04-18T22:39:28.018Z,12.10
2023-04-18T22:42:12.783Z,12.09
2023-04-18T22:44:40.458Z,12.13
2023-04-18T22:47:08.512Z,12.13
2023-04-18T22:49:36.164Z,12.16
2023-04-18T22:52:04.074Z,12.14
2023-04-18T22:54:31.765Z,12.17
2023-04-18T22:56:59.461Z,12.18
2023-04-18T22:59:28.532Z,12.18
2023-04-18T23:01:56.455Z,12.18
2023-04-18T23:04:24.452Z,12.19
2023-04-18T23:06:52.247Z,12.17
2023-04-18T23:09:20.012Z,12.10
2023-04-18T23:11:47.700Z,12.10
2023-04-18T23:14:15.696Z,12.15
2023-04-18T23:16:44.962Z,12.14
2023-04-18T23:19:12.628Z,12.14
2023-04-18T23:21:40.474Z,12.08
2023-04-18T23:24:08.747Z,12.05
2023-04-18T23:26:36.472Z,12.10
2023-04-18T23:29:04.239Z,12.14
2023-04-18T23:31:32.763Z,12.13
2023-04-18T23:34:02.012Z,12.16
2023-04-18T23:36:29.784Z,12.14
2023-04-18T23:38:57.479Z,12.18
2023-04-18T23:41:25.152Z,12.17
2023-04-18T23:43:52.855Z,12.15
2023-04-18T23:46:20.606Z,12.16
2023-04-18T23:48:48.399Z,12.16
2023-04-18T23:51:17.520Z,12.11
2023-04-18T23:53:45.292Z,12.13
2023-04-18T23:56:13.066Z,12.15
2023-04-18T23:58:41.069Z,12.13
